Time;durP1;ratioP1;P1;durP2;ratioP2;P2;SDS_P1;SDS_P2;PMS_P1;PMS_P2;Temp;Humidity;BMP_temperature;BMP_pressure;BME280_temperature;BME280_humidity;BME280_pressure;Samples;Min_cycle;Max_cycle;Signal;HPM_P1;HPM_P2
2023/09/22 00:00:49;;;;;;;4.17;0.60;;;;;;;;;;5030208;28;20527;-57
2023/09/22 00:03:18;;;;;;;1.73;0.50;;;;;;;;;;5030058;28;20932;-57
2023/09/22 00:05:46;;;;;;;1.83;0.40;;;;;;;;;;5029576;28;20524;-55
2023/09/22 00:08:13;;;;;;;2.00;0.43;;;;;;;;;;5028927;28;21069;-55
2023/09/22 00:10:40;;;;;;;1.70;0.60;;;;;;;;;;5030067;28;20446;-55
2023/09/22 00:13:07;;;;;;;2.93;1.00;;;;;;;;;;5029696;28;20470;-56
2023/09/22 00:15:35;;;;;;;1.70;0.50;;;;;;;;;;5030183;28;20524;-55
2023/09/22 00:18:02;;;;;;;1.83;0.77;;;;;;;;;;5029783;28;20541;-56
2023/09/22 00:20:31;;;;;;;1.40;0.50;;;;;;;;;;5030238;28;20825;-56
2023/09/22 00:22:57;;;;;;;2.00;0.80;;;;;;;;;;5029892;28;20466;-56
2023/09/22 00:25:24;;;;;;;1.50;0.60;;;;;;;;;;5030472;28;20438;-56
2023/09/22 00:27:52;;;;;;;1.50;0.53;;;;;;;;;;5029658;28;20514;-55
2023/09/22 00:30:19;;;;;;;1.50;0.70;;;;;;;;;;5029967;28;20438;-56
2023/09/22 00:32:47;;;;;;;1.70;0.50;;;;;;;;;;5030204;28;20470;-55
2023/09/22 00:35:14;;;;;;;1.87;0.60;;;;;;;;;;5029196;28;20508;-55
2023/09/22 00:37:43;;;;;;;1.60;0.60;;;;;;;;;;5029290;28;20450;-55
2023/09/22 00:40:12;;;;;;;2.07;0.60;;;;;;;;;;5029273;28;20465;-57
2023/09/22 00:42:39;;;;;;;1.50;0.53;;;;;;;;;;5029915;28;20466;-55
2023/09/22 00:45:07;;;;;;;2.07;0.50;;;;;;;;;;5029254;28;20496;-57
2023/09/22 00:47:34;;;;;;;2.23;0.90;;;;;;;;;;5028886;28;20509;-56
2023/09/22 00:50:02;;;;;;;2.13;0.70;;;;;;;;;;5029512;28;20446;-56
2023/09/22 00:52:30;;;;;;;1.57;0.70;;;;;;;;;;5029319;28;20983;-55
2023/09/22 00:54:59;;;;;;;1.60;0.90;;;;;;;;;;5029034;28;20504;-56
2023/09/22 00:57:27;;;;;;;1.60;0.60;;;;;;;;;;5029446;28;20933;-55
2023/09/22 00:59:55;;;;;;;2.00;0.60;;;;;;;;;;5029254;28;20442;-57
2023/09/22 01:02:25;;;;;;;1.60;0.70;;;;;;;;;;5028958;28;20461;-55
2023/09/22 01:04:52;;;;;;;1.60;0.70;;;;;;;;;;5026950;28;20457;-55
2023/09/22 01:07:20;;;;;;;1.70;0.50;;;;;;;;;;5022327;28;20474;-55
2023/09/22 01:09:47;;;;;;;1.60;0.57;;;;;;;;;;5027888;28;20455;-58
2023/09/22 01:12:16;;;;;;;3.03;0.80;;;;;;;;;;5029072;28;20473;-55
2023/09/22 01:14:43;;;;;;;1.67;0.60;;;;;;;;;;5029043;28;20442;-55
2023/09/22 01:17:13;;;;;;;1.60;0.60;;;;;;;;;;5029387;28;20446;-55
2023/09/22 01:19:42;;;;;;;1.60;0.70;;;;;;;;;;5028973;28;20467;-56
2023/09/22 01:22:11;;;;;;;1.90;0.80;;;;;;;;;;5028790;28;21072;-55
2023/09/22 01:24:39;;;;;;;3.23;0.90;;;;;;;;;;5028159;28;20450;-55
2023/09/22 01:27:06;;;;;;;1.70;0.60;;;;;;;;;;5028539;28;20565;-55
2023/09/22 01:29:33;;;;;;;2.57;0.90;;;;;;;;;;5028913;28;20450;-56
2023/09/22 01:32:02;;;;;;;2.03;0.93;;;;;;;;;;5029130;28;20516;-56
2023/09/22 01:34:29;;;;;;;2.17;0.80;;;;;;;;;;5029194;28;20504;-54
2023/09/22 01:36:57;;;;;;;1.87;0.73;;;;;;;;;;5028374;28;20450;-57
2023/09/22 01:39:26;;;;;;;1.93;0.80;;;;;;;;;;5028809;28;20482;-57
2023/09/22 01:41:53;;;;;;;3.00;1.10;;;;;;;;;;5029053;28;21034;-57
2023/09/22 01:44:21;;;;;;;2.60;1.10;;;;;;;;;;5028662;28;20482;-56
2023/09/22 01:46:49;;;;;;;1.77;0.73;;;;;;;;;;5029090;28;20446;-55
2023/09/22 01:49:16;;;;;;;2.27;0.83;;;;;;;;;;5029153;28;20454;-56
2023/09/22 01:51:44;;;;;;;1.63;0.87;;;;;;;;;;5032580;28;20533;-55
2023/09/22 01:54:11;;;;;;;2.40;1.10;;;;;;;;;;5032157;28;20485;-56
2023/09/22 01:56:39;;;;;;;2.27;0.90;;;;;;;;;;5032327;28;20450;-55
2023/09/22 01:59:07;;;;;;;2.60;1.37;;;;;;;;;;5030382;28;20989;-55
2023/09/22 02:01:34;;;;;;;4.27;1.07;;;;;;;;;;5032065;28;20487;-55
2023/09/22 02:04:02;;;;;;;2.60;1.00;;;;;;;;;;5031836;28;20508;-56
2023/09/22 02:06:29;;;;;;;3.90;1.47;;;;;;;;;;5032333;28;20442;-55
2023/09/22 02:08:57;;;;;;;3.70;1.70;;;;;;;;;;5031747;28;20614;-57
2023/09/22 02:11:24;;;;;;;2.20;1.60;;;;;;;;;;5032233;28;20932;-57
2023/09/22 02:13:53;;;;;;;2.20;1.23;;;;;;;;;;5031494;28;20474;-54
2023/09/22 02:16:20;;;;;;;3.43;1.40;;;;;;;;;;5032320;28;20442;-56
2023/09/22 02:18:47;;;;;;;4.53;1.83;;;;;;;;;;5032101;28;20445;-55
2023/09/22 02:21:17;;;;;;;2.60;1.90;;;;;;;;;;5031258;28;20451;-57
2023/09/22 02:23:44;;;;;;;4.33;1.93;;;;;;;;;;5031623;28;20454;-56
2023/09/22 02:26:12;;;;;;;2.73;1.67;;;;;;;;;;5031839;28;20450;-55
2023/09/22 02:28:39;;;;;;;3.53;1.60;;;;;;;;;;5031555;28;20474;-55
2023/09/22 02:31:08;;;;;;;2.77;1.83;;;;;;;;;;5031096;28;20450;-57
2023/09/22 02:33:35;;;;;;;3.27;1.50;;;;;;;;;;5031512;28;20500;-57
2023/09/22 02:36:05;;;;;;;2.90;1.47;;;;;;;;;;5031596;28;20454;-55
2023/09/22 02:38:32;;;;;;;2.30;1.53;;;;;;;;;;5031999;28;20447;-56
2023/09/22 02:41:00;;;;;;;2.13;1.40;;;;;;;;;;5031827;28;20839;-56
2023/09/22 02:43:27;;;;;;;2.50;1.20;;;;;;;;;;5031294;28;20473;-56
2023/09/22 02:45:55;;;;;;;2.80;1.70;;;;;;;;;;5031073;28;21067;-55
2023/09/22 02:48:23;;;;;;;4.43;1.70;;;;;;;;;;5030944;28;21089;-55
2023/09/22 02:50:50;;;;;;;4.00;1.50;;;;;;;;;;5031153;28;20516;-55
2023/09/22 02:53:18;;;;;;;2.80;1.43;;;;;;;;;;5030958;28;20536;-57
2023/09/22 02:55:46;;;;;;;2.77;1.33;;;;;;;;;;5031148;28;20944;-56
2023/09/22 02:58:14;;;;;;;2.37;1.53;;;;;;;;;;5029737;28;20932;-55
2023/09/22 03:00:44;;;;;;;2.80;1.80;;;;;;;;;;5030614;28;20450;-57
2023/09/22 03:03:12;;;;;;;3.00;1.13;;;;;;;;;;5030593;28;20490;-55
2023/09/22 03:05:41;;;;;;;2.53;1.60;;;;;;;;;;5031233;28;20469;-56
2023/09/22 03:08:08;;;;;;;3.77;1.23;;;;;;;;;;5030887;28;20482;-55
2023/09/22 03:10:35;;;;;;;3.10;1.30;;;;;;;;;;5031035;28;20456;-55
2023/09/22 03:13:03;;;;;;;2.03;1.50;;;;;;;;;;5030414;28;20552;-55
2023/09/22 03:15:30;;;;;;;4.90;3.00;;;;;;;;;;5031713;28;20461;-56
2023/09/22 03:17:57;;;;;;;3.13;1.73;;;;;;;;;;5030706;28;20446;-55
2023/09/22 03:20:25;;;;;;;2.37;1.47;;;;;;;;;;5031027;28;20474;-56
2023/09/22 03:22:54;;;;;;;2.30;1.67;;;;;;;;;;5030133;28;20493;-55
2023/09/22 03:25:21;;;;;;;3.30;1.53;;;;;;;;;;5030984;28;20520;-57
2023/09/22 03:27:49;;;;;;;2.37;1.80;;;;;;;;;;5029873;28;20552;-55
2023/09/22 03:30:17;;;;;;;2.40;1.70;;;;;;;;;;5030591;28;20450;-57
2023/09/22 03:32:44;;;;;;;2.53;1.57;;;;;;;;;;5030764;28;20573;-55
2023/09/22 03:35:11;;;;;;;2.73;1.40;;;;;;;;;;5030473;28;21019;-55
2023/09/22 03:37:40;;;;;;;2.47;1.30;;;;;;;;;;5030066;28;20552;-55
2023/09/22 03:40:13;;;;;;;3.53;1.70;;;;;;;;;;5029334;28;20484;-55
2023/09/22 03:42:40;;;;;;;3.10;1.67;;;;;;;;;;5028168;28;20484;-58
2023/09/22 03:45:08;;;;;;;3.87;1.47;;;;;;;;;;5029245;28;20482;-56
2023/09/22 03:47:36;;;;;;;2.67;1.50;;;;;;;;;;5030261;28;20454;-54
2023/09/22 03:50:05;;;;;;;2.20;1.60;;;;;;;;;;5030303;28;20453;-55
2023/09/22 03:52:32;;;;;;;2.43;1.57;;;;;;;;;;5031372;28;20490;-56
2023/09/22 03:54:59;;;;;;;2.87;1.30;;;;;;;;;;5029734;28;20570;-55
2023/09/22 03:57:28;;;;;;;2.20;1.40;;;;;;;;;;5029743;28;20502;-56
2023/09/22 03:59:55;;;;;;;2.60;1.23;;;;;;;;;;5029935;28;20500;-54
2023/09/22 04:02:23;;;;;;;4.97;1.30;;;;;;;;;;5029914;28;20466;-55
2023/09/22 04:04:50;;;;;;;2.97;1.40;;;;;;;;;;5030382;28;20442;-55
2023/09/22 04:07:18;;;;;;;3.67;1.47;;;;;;;;;;5029500;28;20548;-56
2023/09/22 04:09:45;;;;;;;2.17;1.20;;;;;;;;;;5029765;28;21047;-55
2023/09/22 04:12:12;;;;;;;3.17;1.30;;;;;;;;;;5029113;28;20462;-56
2023/09/22 04:14:41;;;;;;;3.50;1.70;;;;;;;;;;5030112;28;20489;-56
2023/09/22 04:17:08;;;;;;;2.00;1.20;;;;;;;;;;5029789;28;20934;-55
2023/09/22 04:19:37;;;;;;;1.90;1.23;;;;;;;;;;5029652;28;20446;-57
2023/09/22 04:22:06;;;;;;;2.50;1.30;;;;;;;;;;5029418;28;20468;-58
2023/09/22 04:24:34;;;;;;;5.50;1.40;;;;;;;;;;5030209;28;20460;-55
2023/09/22 04:27:06;;;;;;;2.07;0.90;;;;;;;;;;5029706;28;20457;-56
2023/09/22 04:29:35;;;;;;;2.07;1.07;;;;;;;;;;5029961;28;20492;-55
2023/09/22 04:32:04;;;;;;;3.77;1.40;;;;;;;;;;5029677;28;20465;-55
2023/09/22 04:34:32;;;;;;;2.80;1.37;;;;;;;;;;5029662;28;20876;-55
2023/09/22 04:36:59;;;;;;;2.13;1.13;;;;;;;;;;5029677;28;20450;-55
2023/09/22 04:39:26;;;;;;;2.57;1.50;;;;;;;;;;5029555;28;20532;-58
2023/09/22 04:41:54;;;;;;;2.37;1.13;;;;;;;;;;5029495;28;20470;-56
2023/09/22 04:44:22;;;;;;;2.43;1.27;;;;;;;;;;5029448;28;20999;-56
2023/09/22 04:46:49;;;;;;;2.40;0.90;;;;;;;;;;5028859;28;20569;-57
2023/09/22 04:49:18;;;;;;;2.53;1.03;;;;;;;;;;5027402;28;21059;-56
2023/09/22 04:51:45;;;;;;;2.80;1.20;;;;;;;;;;5027671;28;20553;-54
2023/09/22 04:54:12;;;;;;;2.50;1.07;;;;;;;;;;5029550;28;20814;-55
2023/09/22 04:56:40;;;;;;;2.40;1.27;;;;;;;;;;5030143;28;20545;-54
2023/09/22 04:59:09;;;;;;;2.50;1.57;;;;;;;;;;5028517;28;20476;-55
2023/09/22 05:01:37;;;;;;;2.47;1.17;;;;;;;;;;5026857;28;20450;-56
2023/09/22 05:04:05;;;;;;;1.90;0.90;;;;;;;;;;5027409;28;20450;-55
2023/09/22 05:06:33;;;;;;;2.50;1.10;;;;;;;;;;5028922;28;20450;-56
2023/09/22 05:09:01;;;;;;;3.10;1.27;;;;;;;;;;5027412;28;20548;-55
2023/09/22 05:11:28;;;;;;;2.67;1.30;;;;;;;;;;5026939;28;20501;-56
2023/09/22 05:13:56;;;;;;;2.40;1.30;;;;;;;;;;5026314;28;20540;-58
2023/09/22 05:16:23;;;;;;;2.60;1.10;;;;;;;;;;5025863;28;20454;-57
2023/09/22 05:18:51;;;;;;;2.30;1.13;;;;;;;;;;5026537;28;20528;-54
2023/09/22 05:21:19;;;;;;;3.10;1.67;;;;;;;;;;5027061;28;20446;-57
2023/09/22 05:23:48;;;;;;;2.57;1.40;;;;;;;;;;5024237;28;20450;-56
2023/09/22 05:26:15;;;;;;;2.90;1.47;;;;;;;;;;5029729;28;20438;-56
2023/09/22 05:28:42;;;;;;;2.90;1.00;;;;;;;;;;5030322;28;20971;-56
2023/09/22 05:31:09;;;;;;;4.10;1.37;;;;;;;;;;5032349;28;20449;-58
2023/09/22 05:33:37;;;;;;;2.57;1.40;;;;;;;;;;5032831;28;20897;-57
2023/09/22 05:36:05;;;;;;;2.73;1.50;;;;;;;;;;5033081;28;20495;-55
2023/09/22 05:38:32;;;;;;;3.23;1.57;;;;;;;;;;5033469;28;20446;-58
2023/09/22 05:41:01;;;;;;;2.83;1.50;;;;;;;;;;5033183;28;20451;-56
2023/09/22 05:43:30;;;;;;;3.37;1.60;;;;;;;;;;5030282;28;20468;-55
2023/09/22 05:45:58;;;;;;;3.20;1.70;;;;;;;;;;5030338;28;20458;-57
2023/09/22 05:48:25;;;;;;;4.37;1.53;;;;;;;;;;5029910;28;20509;-57
2023/09/22 05:50:57;;;;;;;2.80;1.60;;;;;;;;;;5029390;28;20477;-57
2023/09/22 05:53:25;;;;;;;3.03;1.83;;;;;;;;;;5031894;28;21164;-56
2023/09/22 05:55:53;;;;;;;3.53;1.70;;;;;;;;;;5030536;28;20446;-57
2023/09/22 05:58:22;;;;;;;4.07;1.80;;;;;;;;;;5023990;28;20442;-57
2023/09/22 06:00:49;;;;;;;3.63;1.70;;;;;;;;;;5031009;28;20478;-57
2023/09/22 06:03:19;;;;;;;3.00;1.50;;;;;;;;;;5030476;28;20519;-57
2023/09/22 06:05:46;;;;;;;2.43;1.23;;;;;;;;;;5027638;28;20450;-57
2023/09/22 06:08:13;;;;;;;3.27;1.63;;;;;;;;;;5029996;28;20461;-58
2023/09/22 06:10:42;;;;;;;3.00;1.70;;;;;;;;;;5031636;28;20458;-57
2023/09/22 06:13:10;;;;;;;3.13;1.40;;;;;;;;;;5031956;28;20473;-57
2023/09/22 06:15:38;;;;;;;3.30;1.50;;;;;;;;;;5032742;28;20525;-56
2023/09/22 06:18:06;;;;;;;2.50;1.50;;;;;;;;;;5032046;28;20447;-57
2023/09/22 06:20:33;;;;;;;3.77;1.50;;;;;;;;;;5032956;28;20944;-57
2023/09/22 06:23:01;;;;;;;3.87;1.93;;;;;;;;;;5032287;28;20541;-56
2023/09/22 06:25:28;;;;;;;2.00;1.30;;;;;;;;;;5032790;28;20477;-56
2023/09/22 06:27:55;;;;;;;2.43;1.40;;;;;;;;;;5031910;28;20514;-56
2023/09/22 06:30:23;;;;;;;3.43;1.60;;;;;;;;;;5032015;28;20478;-55
2023/09/22 06:32:51;;;;;;;2.63;1.40;;;;;;;;;;5032237;28;20553;-57
2023/09/22 06:35:19;;;;;;;2.90;1.60;;;;;;;;;;5031693;28;20520;-56
2023/09/22 06:37:46;;;;;;;2.87;1.67;;;;;;;;;;5031528;28;20477;-55
2023/09/22 06:40:15;;;;;;;3.00;1.57;;;;;;;;;;5031532;28;20446;-57
2023/09/22 06:42:44;;;;;;;3.13;1.60;;;;;;;;;;5032061;28;20840;-56
2023/09/22 06:45:12;;;;;;;3.00;1.70;;;;;;;;;;5031869;28;20457;-55
2023/09/22 06:47:41;;;;;;;3.13;1.47;;;;;;;;;;5031428;28;20452;-55
2023/09/22 06:50:11;;;;;;;2.93;1.37;;;;;;;;;;5031998;28;20565;-56
2023/09/22 06:52:39;;;;;;;1.90;0.80;;;;;;;;;;5032377;28;21027;-58
2023/09/22 06:55:09;;;;;;;2.07;1.00;;;;;;;;;;5031849;28;20496;-58
2023/09/22 06:57:40;;;;;;;1.83;0.73;;;;;;;;;;5031959;28;20520;-57
2023/09/22 07:00:15;;;;;;;1.87;0.77;;;;;;;;;;5031589;28;20446;-57
2023/09/22 07:02:42;;;;;;;2.60;0.87;;;;;;;;;;5031505;28;20494;-57
2023/09/22 07:05:12;;;;;;;2.40;1.30;;;;;;;;;;5031925;28;20560;-55
2023/09/22 07:07:39;;;;;;;2.00;1.20;;;;;;;;;;5030937;28;20446;-57
2023/09/22 07:10:09;;;;;;;2.10;1.10;;;;;;;;;;5031590;28;20588;-56
2023/09/22 07:12:38;;;;;;;2.20;1.23;;;;;;;;;;5031670;28;20470;-56
2023/09/22 07:15:06;;;;;;;2.33;1.13;;;;;;;;;;5031290;28;20442;-56
2023/09/22 07:17:33;;;;;;;1.70;0.67;;;;;;;;;;5031441;28;21015;-56
2023/09/22 07:20:01;;;;;;;2.17;0.73;;;;;;;;;;5031015;28;20869;-56
2023/09/22 07:22:32;;;;;;;2.60;0.97;;;;;;;;;;5031318;28;20494;-57
2023/09/22 07:24:59;;;;;;;1.70;0.70;;;;;;;;;;5030935;28;20485;-57
2023/09/22 07:27:26;;;;;;;2.10;0.97;;;;;;;;;;5031378;28;20505;-57
2023/09/22 07:29:53;;;;;;;1.50;0.70;;;;;;;;;;5029725;28;20478;-56
2023/09/22 07:32:21;;;;;;;1.63;0.63;;;;;;;;;;5030188;28;20462;-56
2023/09/22 07:34:50;;;;;;;2.17;0.70;;;;;;;;;;5029466;28;20443;-58
2023/09/22 07:37:17;;;;;;;2.90;0.50;;;;;;;;;;5028349;28;20872;-55
2023/09/22 07:39:48;;;;;;;1.50;0.50;;;;;;;;;;5028376;28;20499;-57
2023/09/22 07:42:15;;;;;;;2.17;0.50;;;;;;;;;;5030197;28;20472;-56
2023/09/22 07:44:43;;;;;;;1.77;0.60;;;;;;;;;;5030907;28;20544;-57
2023/09/22 07:47:13;;;;;;;1.70;0.60;;;;;;;;;;5029633;28;20509;-56
2023/09/22 07:49:42;;;;;;;1.70;0.57;;;;;;;;;;5030480;28;20520;-57
2023/09/22 07:52:10;;;;;;;2.03;0.40;;;;;;;;;;5030596;28;20474;-58
2023/09/22 07:54:37;;;;;;;1.93;0.60;;;;;;;;;;5030476;28;20533;-58
2023/09/22 07:57:06;;;;;;;1.63;0.63;;;;;;;;;;5030384;28;20454;-57
2023/09/22 07:59:34;;;;;;;1.70;0.90;;;;;;;;;;5030683;28;20442;-57
2023/09/22 08:02:02;;;;;;;2.17;0.90;;;;;;;;;;5029445;28;20476;-57
2023/09/22 08:04:29;;;;;;;1.73;0.70;;;;;;;;;;5030245;28;20596;-57
2023/09/22 08:06:59;;;;;;;1.87;1.00;;;;;;;;;;5030098;28;20450;-56
2023/09/22 08:09:26;;;;;;;6.50;3.20;;;;;;;;;;5027527;28;20532;-58
2023/09/22 08:11:53;;;;;;;3.40;1.30;;;;;;;;;;5030095;28;20516;-59
2023/09/22 08:14:23;;;;;;;3.07;1.17;;;;;;;;;;5029861;28;20476;-57
2023/09/22 08:16:50;;;;;;;1.80;0.97;;;;;;;;;;5029790;28;20505;-58
2023/09/22 08:19:17;;;;;;;2.60;1.07;;;;;;;;;;5029919;28;20464;-58
2023/09/22 08:21:46;;;;;;;3.20;0.70;;;;;;;;;;5027122;28;20482;-57
2023/09/22 08:24:15;;;;;;;3.53;1.37;;;;;;;;;;5026227;28;20446;-57
2023/09/22 08:26:42;;;;;;;2.10;0.93;;;;;;;;;;5026803;28;20453;-56
2023/09/22 08:29:10;;;;;;;3.40;0.67;;;;;;;;;;5024998;28;20560;-57
2023/09/22 08:31:39;;;;;;;2.10;1.00;;;;;;;;;;5030327;28;20523;-58
2023/09/22 08:34:06;;;;;;;2.63;0.93;;;;;;;;;;5029844;28;20442;-57
2023/09/22 08:36:34;;;;;;;1.40;0.60;;;;;;;;;;5028607;28;20454;-57
2023/09/22 08:39:01;;;;;;;1.60;0.60;;;;;;;;;;5029514;28;20508;-56
2023/09/22 08:41:31;;;;;;;2.07;0.70;;;;;;;;;;5029778;28;20512;-58
2023/09/22 08:43:58;;;;;;;3.10;0.50;;;;;;;;;;5029905;28;21223;-58
2023/09/22 08:46:26;;;;;;;2.90;2.10;;;;;;;;;;5029506;28;20452;-57
2023/09/22 08:48:54;;;;;;;4.50;2.20;;;;;;;;;;5029861;28;20485;-56
2023/09/22 08:51:22;;;;;;;1.53;0.80;;;;;;;;;;5028132;28;20442;-57
2023/09/22 08:53:53;;;;;;;5.23;2.43;;;;;;;;;;5029692;28;20459;-56
2023/09/22 08:56:21;;;;;;;2.07;0.97;;;;;;;;;;5027368;28;20446;-55
2023/09/22 08:58:50;;;;;;;2.53;0.83;;;;;;;;;;5031165;28;20446;-55
2023/09/22 09:01:20;;;;;;;2.03;0.80;;;;;;;;;;5034136;28;20445;-55
2023/09/22 09:03:47;;;;;;;1.67;0.70;;;;;;;;;;5033293;28;21096;-55
2023/09/22 09:06:17;;;;;;;1.73;0.80;;;;;;;;;;5032969;28;20944;-57
2023/09/22 09:09:04;;;;;;;1.90;0.70;;;;;;;;;;5033680;28;20464;-56
2023/09/22 09:11:31;;;;;;;1.50;0.50;;;;;;;;;;5034127;28;20445;-55
2023/09/22 09:13:58;;;;;;;1.97;0.50;;;;;;;;;;5033622;28;20861;-55
2023/09/22 09:16:32;;;;;;;1.57;0.50;;;;;;;;;;5033960;28;20438;-55
2023/09/22 09:19:14;;;;;;;1.60;0.50;;;;;;;;;;5033671;28;20473;-56
2023/09/22 09:22:04;;;;;;;1.70;0.70;;;;;;;;;;5033684;28;20486;-55
2023/09/22 09:24:32;;;;;;;1.83;0.80;;;;;;;;;;5033910;28;20451;-55
2023/09/22 09:27:00;;;;;;;1.50;0.50;;;;;;;;;;5033436;28;20449;-56
2023/09/22 09:29:31;;;;;;;1.50;0.60;;;;;;;;;;5033665;28;20490;-52
2023/09/22 09:32:00;;;;;;;1.50;0.73;;;;;;;;;;5033215;28;20462;-54
2023/09/22 09:34:39;;;;;;;1.30;0.43;;;;;;;;;;5033673;28;20916;-55
2023/09/22 09:37:13;;;;;;;2.07;0.50;;;;;;;;;;5025491;28;20447;-55
2023/09/22 09:39:45;;;;;;;1.60;0.60;;;;;;;;;;5033055;28;20469;-55
2023/09/22 09:42:15;;;;;;;1.50;0.50;;;;;;;;;;5032913;28;20505;-57
2023/09/22 09:44:47;;;;;;;2.20;1.10;;;;;;;;;;5033209;28;20438;-54
2023/09/22 09:47:17;;;;;;;1.90;0.60;;;;;;;;;;5026826;28;20458;-56
2023/09/22 09:49:44;;;;;;;1.80;0.70;;;;;;;;;;5032776;28;20505;-57
2023/09/22 09:52:16;;;;;;;2.33;1.10;;;;;;;;;;5025561;28;20520;-55
2023/09/22 09:54:46;;;;;;;1.67;0.60;;;;;;;;;;5031579;28;20948;-56
2023/09/22 09:57:14;;;;;;;1.83;0.70;;;;;;;;;;5031767;28;20446;-55
2023/09/22 09:59:42;;;;;;;1.53;0.57;;;;;;;;;;5033116;28;20438;-55
2023/09/22 10:02:10;;;;;;;1.77;0.57;;;;;;;;;;5032303;28;20458;-57
2023/09/22 10:04:39;;;;;;;1.60;0.73;;;;;;;;;;5032547;28;20527;-56
2023/09/22 10:07:07;;;;;;;1.60;0.50;;;;;;;;;;5032155;28;20489;-56
2023/09/22 10:09:36;;;;;;;3.40;1.60;;;;;;;;;;5026852;28;20907;-55
2023/09/22 10:12:04;;;;;;;1.50;0.63;;;;;;;;;;5029564;28;20520;-56
2023/09/22 10:14:47;;;;;;;1.70;0.60;;;;;;;;;;5033025;28;20500;-56
2023/09/22 10:17:21;;;;;;;2.20;0.90;;;;;;;;;;5032815;28;20442;-56
2023/09/22 10:19:48;;;;;;;4.03;0.83;;;;;;;;;;5028200;28;20435;-55
2023/09/22 10:22:16;;;;;;;1.90;0.80;;;;;;;;;;5029762;28;20553;-57
2023/09/22 10:24:44;;;;;;;3.10;0.70;;;;;;;;;;5032837;28;20860;-55
2023/09/22 10:27:13;;;;;;;2.53;0.90;;;;;;;;;;5031934;28;20442;-55
2023/09/22 10:29:45;;;;;;;2.67;0.80;;;;;;;;;;5029810;28;20442;-57
2023/09/22 10:32:23;;;;;;;1.50;0.70;;;;;;;;;;5024568;28;20462;-55
2023/09/22 10:34:51;;;;;;;2.20;0.93;;;;;;;;;;5024283;28;20925;-57
2023/09/22 10:37:19;;;;;;;1.63;0.60;;;;;;;;;;5023852;28;20497;-55
2023/09/22 10:39:55;;;;;;;1.80;0.70;;;;;;;;;;5023217;28;20472;-55
2023/09/22 10:42:23;;;;;;;1.50;0.60;;;;;;;;;;5020526;28;20858;-57
2023/09/22 10:44:58;;;;;;;2.10;1.03;;;;;;;;;;5023377;28;20521;-56
2023/09/22 10:47:27;;;;;;;1.60;0.67;;;;;;;;;;5024404;28;20449;-54
2023/09/22 10:49:55;;;;;;;2.27;0.90;;;;;;;;;;5019752;28;20484;-57
2023/09/22 10:52:23;;;;;;;2.53;0.63;;;;;;;;;;5029518;28;20904;-55
2023/09/22 10:54:50;;;;;;;1.80;0.83;;;;;;;;;;5030515;28;20486;-56
2023/09/22 10:57:27;;;;;;;2.50;0.90;;;;;;;;;;5030418;28;20435;-54
2023/09/22 10:59:56;;;;;;;3.07;1.47;;;;;;;;;;5030357;28;20441;-55
2023/09/22 11:02:24;;;;;;;3.23;2.17;;;;;;;;;;5030876;28;20508;-55
2023/09/22 11:04:51;;;;;;;2.50;1.00;;;;;;;;;;5030035;28;20446;-55
2023/09/22 11:07:32;;;;;;;2.10;1.00;;;;;;;;;;5029719;28;20685;-55
2023/09/22 11:09:59;;;;;;;1.73;0.70;;;;;;;;;;5029916;28;20477;-56
2023/09/22 11:12:28;;;;;;;2.07;1.00;;;;;;;;;;5031039;28;20883;-55
2023/09/22 11:14:55;;;;;;;2.97;1.60;;;;;;;;;;5030886;28;20442;-55
2023/09/22 11:17:23;;;;;;;1.80;0.90;;;;;;;;;;5026995;28;20525;-55
2023/09/22 11:19:53;;;;;;;2.53;0.73;;;;;;;;;;5026242;28;20447;-55
2023/09/22 11:22:21;;;;;;;1.70;0.70;;;;;;;;;;5030020;28;20532;-56
2023/09/22 11:24:48;;;;;;;1.90;0.87;;;;;;;;;;5030319;28;20447;-56
2023/09/22 11:27:15;;;;;;;1.40;0.50;;;;;;;;;;5030988;28;20450;-54
2023/09/22 11:29:44;;;;;;;1.97;0.60;;;;;;;;;;5018562;28;20532;-55
2023/09/22 11:32:11;;;;;;;2.73;1.07;;;;;;;;;;5022987;28;20532;-56
2023/09/22 11:34:48;;;;;;;2.03;0.90;;;;;;;;;;5026664;28;20852;-54
2023/09/22 11:37:15;;;;;;;1.40;0.57;;;;;;;;;;5026197;28;20485;-54
2023/09/22 11:39:43;;;;;;;1.80;0.60;;;;;;;;;;5025302;28;20447;-54
2023/09/22 11:42:10;;;;;;;2.87;0.97;;;;;;;;;;5028427;28;20462;-55
2023/09/22 11:44:37;;;;;;;2.63;0.73;;;;;;;;;;5026611;28;20451;-55
2023/09/22 11:47:06;;;;;;;2.03;0.67;;;;;;;;;;5026796;28;20501;-55
2023/09/22 11:49:37;;;;;;;1.70;0.60;;;;;;;;;;5020983;28;20495;-56
2023/09/22 11:52:04;;;;;;;1.87;0.40;;;;;;;;;;5026222;28;20984;-54
2023/09/22 11:54:34;;;;;;;1.40;0.50;;;;;;;;;;5030566;28;20454;-54
2023/09/22 11:57:03;;;;;;;1.50;0.57;;;;;;;;;;5029031;28;20451;-56
2023/09/22 11:59:31;;;;;;;1.60;0.70;;;;;;;;;;5021078;28;20466;-54
2023/09/22 12:02:00;;;;;;;1.90;0.70;;;;;;;;;;5032807;28;20473;-54
2023/09/22 12:04:29;;;;;;;1.80;0.80;;;;;;;;;;5029962;28;20811;-54
2023/09/22 12:06:56;;;;;;;1.50;0.50;;;;;;;;;;5030731;28;20477;-55
2023/09/22 12:09:24;;;;;;;1.83;0.77;;;;;;;;;;5029812;28;20451;-54
2023/09/22 12:11:51;;;;;;;1.60;0.60;;;;;;;;;;5022369;28;20510;-54
2023/09/22 12:14:19;;;;;;;1.57;0.63;;;;;;;;;;5028582;28;20485;-54
2023/09/22 12:16:47;;;;;;;1.83;0.63;;;;;;;;;;5021425;28;20450;-54
2023/09/22 12:19:15;;;;;;;1.50;0.70;;;;;;;;;;5021725;28;20559;-55
2023/09/22 12:21:43;;;;;;;1.77;0.50;;;;;;;;;;5021152;28;20466;-54
2023/09/22 12:24:11;;;;;;;1.50;0.60;;;;;;;;;;5028253;28;20834;-54
2023/09/22 12:26:38;;;;;;;1.80;0.70;;;;;;;;;;5026243;28;20501;-54
2023/09/22 12:29:05;;;;;;;1.43;0.63;;;;;;;;;;5027899;28;20812;-54
2023/09/22 12:31:33;;;;;;;1.40;0.50;;;;;;;;;;5027465;28;20493;-54
2023/09/22 12:34:00;;;;;;;1.37;0.50;;;;;;;;;;5022674;28;20465;-55
2023/09/22 12:36:29;;;;;;;1.50;0.60;;;;;;;;;;5019758;28;20886;-56
2023/09/22 12:38:58;;;;;;;1.40;0.50;;;;;;;;;;5022240;28;20461;-54
2023/09/22 12:41:25;;;;;;;2.10;0.80;;;;;;;;;;5022268;28;21064;-54
2023/09/22 12:43:52;;;;;;;1.40;0.47;;;;;;;;;;5014165;28;20478;-56
2023/09/22 12:46:20;;;;;;;1.70;0.60;;;;;;;;;;5014441;28;20551;-56
2023/09/22 12:48:47;;;;;;;1.50;0.53;;;;;;;;;;5013213;28;20478;-54
2023/09/22 12:51:14;;;;;;;1.40;0.47;;;;;;;;;;5013002;28;20563;-54
2023/09/22 12:53:42;;;;;;;2.13;0.60;;;;;;;;;;5013664;28;20503;-53
2023/09/22 12:56:12;;;;;;;1.30;0.40;;;;;;;;;;5012873;28;20856;-54
2023/09/22 12:58:39;;;;;;;1.53;0.50;;;;;;;;;;5011654;28;20451;-54
2023/09/22 13:01:12;;;;;;;1.80;0.70;;;;;;;;;;5024177;28;20439;-54
2023/09/22 13:03:40;;;;;;;1.30;0.40;;;;;;;;;;5028405;28;20462;-55
2023/09/22 13:06:09;;;;;;;2.10;0.80;;;;;;;;;;5021411;28;20450;-54
2023/09/22 13:08:37;;;;;;;5.10;1.40;;;;;;;;;;5026062;28;20515;-54
2023/09/22 13:11:05;;;;;;;1.73;1.00;;;;;;;;;;5023650;28;20505;-56
2023/09/22 13:13:33;;;;;;;1.60;0.83;;;;;;;;;;5029656;28;21057;-56
2023/09/22 13:16:02;;;;;;;1.70;0.70;;;;;;;;;;5027194;28;20455;-54
2023/09/22 13:18:29;;;;;;;1.40;0.40;;;;;;;;;;5029661;28;20871;-56
2023/09/22 13:20:56;;;;;;;1.33;0.50;;;;;;;;;;5033872;28;20944;-55
2023/09/22 13:23:23;;;;;;;1.80;0.70;;;;;;;;;;5028421;28;20700;-55
2023/09/22 13:25:52;;;;;;;1.50;0.70;;;;;;;;;;5028192;28;20976;-56
2023/09/22 13:28:20;;;;;;;2.20;0.73;;;;;;;;;;5022614;28;20509;-54
2023/09/22 13:30:53;;;;;;;1.40;0.60;;;;;;;;;;5027062;28;20500;-55
2023/09/22 13:33:21;;;;;;;2.00;0.80;;;;;;;;;;5027537;28;20509;-58
2023/09/22 13:35:49;;;;;;;1.40;0.40;;;;;;;;;;5029915;28;20548;-54
2023/09/22 13:38:17;;;;;;;1.30;0.50;;;;;;;;;;5027207;28;20538;-54
2023/09/22 13:40:46;;;;;;;1.50;0.70;;;;;;;;;;5018775;28;20459;-55
2023/09/22 13:43:13;;;;;;;1.47;0.40;;;;;;;;;;5025208;28;20604;-54
2023/09/22 13:45:41;;;;;;;2.53;0.80;;;;;;;;;;5030271;28;20489;-55
2023/09/22 13:48:10;;;;;;;1.60;0.60;;;;;;;;;;5029326;28;21020;-54
2023/09/22 13:50:38;;;;;;;1.60;0.47;;;;;;;;;;5033259;28;20602;-56
2023/09/22 13:53:06;;;;;;;2.40;0.73;;;;;;;;;;5033377;28;20575;-56
2023/09/22 13:55:34;;;;;;;1.47;0.53;;;;;;;;;;5033367;28;20438;-54
2023/09/22 13:58:02;;;;;;;1.60;0.60;;;;;;;;;;5032418;28;20793;-56
2023/09/22 14:00:29;;;;;;;2.20;0.90;;;;;;;;;;5031472;28;20453;-56
2023/09/22 14:02:57;;;;;;;1.80;0.80;;;;;;;;;;5031585;28;20999;-54
2023/09/22 14:05:26;;;;;;;2.10;0.97;;;;;;;;;;5033950;28;20545;-56
2023/09/22 14:07:53;;;;;;;1.70;1.00;;;;;;;;;;5026343;28;20478;-55
2023/09/22 14:10:23;;;;;;;3.20;1.23;;;;;;;;;;5035862;28;20563;-56
2023/09/22 14:12:51;;;;;;;2.90;1.17;;;;;;;;;;5029020;28;20490;-56
2023/09/22 14:15:19;;;;;;;1.67;0.77;;;;;;;;;;5033598;28;21027;-56
2023/09/22 14:17:46;;;;;;;1.70;0.70;;;;;;;;;;5031569;28;20461;-54
2023/09/22 14:20:14;;;;;;;2.20;1.10;;;;;;;;;;5028749;28;20529;-56
2023/09/22 14:22:43;;;;;;;5.03;1.13;;;;;;;;;;5032335;28;20512;-56
2023/09/22 14:25:11;;;;;;;1.63;0.80;;;;;;;;;;5034871;28;20549;-54
2023/09/22 14:27:39;;;;;;;1.80;1.00;;;;;;;;;;5031856;28;20500;-54
2023/09/22 14:30:07;;;;;;;2.87;1.10;;;;;;;;;;5027712;28;21037;-55
2023/09/22 14:32:35;;;;;;;1.67;0.90;;;;;;;;;;5026585;28;21022;-56
2023/09/22 14:35:02;;;;;;;2.03;0.70;;;;;;;;;;5029989;28;20512;-55
2023/09/22 14:37:29;;;;;;;1.50;0.63;;;;;;;;;;5029168;28;20458;-57
2023/09/22 14:39:58;;;;;;;2.03;0.83;;;;;;;;;;5030047;28;20540;-55
2023/09/22 14:42:28;;;;;;;1.90;1.00;;;;;;;;;;5031790;28;20472;-57
2023/09/22 14:44:55;;;;;;;1.60;0.70;;;;;;;;;;5028383;28;20458;-55
2023/09/22 14:47:23;;;;;;;1.90;0.87;;;;;;;;;;5030884;28;20956;-56
2023/09/22 14:49:50;;;;;;;1.70;0.90;;;;;;;;;;5031719;28;20459;-54